createdAt,value
2023-02-19T00:01:52.500Z,224.05
2023-02-19T00:04:24.892Z,220.63
2023-02-19T00:06:52.436Z,209.88
2023-02-19T00:09:20.374Z,200.48
2023-02-19T00:11:49.833Z,207.10
2023-02-19T00:14:20.499Z,213.85
2023-02-19T00:16:48.430Z,209.68
2023-02-19T00:19:21.281Z,208.80
2023-02-19T00:21:51.545Z,194.55
2023-02-19T00:24:19.769Z,192.98
2023-02-19T00:26:50.144Z,197.43
2023-02-19T00:29:20.666Z,200.07
2023-02-19T00:31:48.646Z,204.90
2023-02-19T00:34:17.544Z,208.75
2023-02-19T00:36:45.068Z,214.05
2023-02-19T00:39:15.838Z,215.35
2023-02-19T00:41:43.685Z,217.00
2023-02-19T00:44:13.444Z,210.35
2023-02-19T00:47:00.939Z,212.68
2023-02-19T00:49:28.210Z,208.30
2023-02-19T00:51:55.176Z,202.07
2023-02-19T00:54:23.575Z,196.10
2023-02-19T00:56:51.203Z,212.85
2023-02-19T00:59:18.725Z,211.13
2023-02-19T01:01:45.926Z,222.05
2023-02-19T01:04:13.991Z,210.65
2023-02-19T01:06:41.924Z,208.02
2023-02-19T01:09:09.233Z,203.98
2023-02-19T01:11:36.544Z,206.05
2023-02-19T01:14:05.127Z,214.90
2023-02-19T01:16:32.458Z,222.60
2023-02-19T01:19:00.339Z,220.77
2023-02-19T01:21:29.894Z,234.88
2023-02-19T01:23:57.859Z,208.85
2023-02-19T01:26:29.772Z,213.13
2023-02-19T01:29:08.281Z,225.60
2023-02-19T01:31:35.618Z,231.75
2023-02-19T01:34:04.467Z,202.00
2023-02-19T01:36:34.042Z,211.15
2023-02-19T01:39:05.117Z,225.00
2023-02-19T01:41:35.747Z,218.50
2023-02-19T01:44:11.349Z,222.98
2023-02-19T01:46:41.704Z,216.80
2023-02-19T01:49:22.399Z,210.93
2023-02-19T01:52:05.971Z,193.95
2023-02-19T01:54:36.949Z,200.77
2023-02-19T01:57:08.229Z,156.63
2023-02-19T01:59:35.367Z,143.75
2023-02-19T02:02:02.802Z,207.65
2023-02-19T02:04:32.883Z,202.80
2023-02-19T02:07:02.477Z,210.93
2023-02-19T02:09:49.743Z,215.85
2023-02-19T02:12:18.071Z,202.70
2023-02-19T02:14:47.904Z,210.18
2023-02-19T02:17:25.112Z,199.48
2023-02-19T02:20:17.925Z,208.43
2023-02-19T02:22:56.304Z,207.57
2023-02-19T02:25:29.691Z,220.05
2023-02-19T02:28:26.133Z,198.95
2023-02-19T02:31:15.158Z,211.18
2023-02-19T02:33:55.265Z,212.82
2023-02-19T02:36:27.738Z,202.40
2023-02-19T02:38:58.157Z,220.88
2023-02-19T02:41:26.701Z,201.75
2023-02-19T02:43:59.744Z,219.40
2023-02-19T02:46:34.719Z,219.37
2023-02-19T02:49:19.136Z,214.52
2023-02-19T02:51:52.825Z,209.90
2023-02-19T02:54:43.723Z,211.20
2023-02-19T02:57:15.095Z,203.30
2023-02-19T02:59:50.365Z,221.50
2023-02-19T03:02:25.596Z,213.88
2023-02-19T03:05:23.160Z,221.98
2023-02-19T03:08:11.218Z,212.50
2023-02-19T03:10:52.538Z,213.88
2023-02-19T03:13:50.861Z,205.60
2023-02-19T03:16:42.893Z,216.20
2023-02-19T03:19:20.178Z,214.93
2023-02-19T03:22:12.110Z,218.95
2023-02-19T03:25:07.523Z,220.65
2023-02-19T03:27:37.912Z,229.10
2023-02-19T03:30:19.287Z,225.73
2023-02-19T03:32:55.359Z,214.63
2023-02-19T03:35:33.132Z,239.05
2023-02-19T03:38:10.498Z,228.82
2023-02-19T03:40:56.513Z,232.27
2023-02-19T03:43:59.660Z,212.35
2023-02-19T03:46:45.342Z,213.50
2023-02-19T03:49:25.429Z,216.40
2023-02-19T03:52:08.743Z,211.05
2023-02-19T03:54:45.290Z,215.82
2023-02-19T03:57:34.046Z,217.35
2023-02-19T04:00:11.137Z,208.07
2023-02-19T04:03:10.349Z,205.90
2023-02-19T04:05:46.806Z,221.65
2023-02-19T04:08:19.553Z,208.90
2023-02-19T04:10:54.953Z,209.65
2023-02-19T04:13:44.668Z,215.02
2023-02-19T04:16:19.522Z,217.00
2023-02-19T04:18:50.044Z,217.70
2023-02-19T04:21:20.339Z,220.02
2023-02-19T04:23:48.368Z,215.20
2023-02-19T04:26:17.143Z,211.93
2023-02-19T04:28:44.374Z,203.13
2023-02-19T04:31:13.619Z,220.85
2023-02-19T04:33:40.996Z,200.70
2023-02-19T04:36:12.520Z,217.27
2023-02-19T04:38:39.634Z,211.90
2023-02-19T04:41:06.616Z,213.02
2023-02-19T04:43:35.747Z,215.52
2023-02-19T04:46:03.115Z,224.48
2023-02-19T04:48:30.366Z,231.13
2023-02-19T04:50:57.616Z,235.43
2023-02-19T04:53:24.784Z,236.98
2023-02-19T04:55:53.504Z,246.70
2023-02-19T04:58:21.443Z,245.30
2023-02-19T05:00:52.899Z,232.02
2023-02-19T05:03:19.990Z,240.27
2023-02-19T05:05:47.159Z,239.32
2023-02-19T05:08:14.252Z,220.77
2023-02-19T05:10:41.388Z,220.43
2023-02-19T05:13:08.578Z,222.70
2023-02-19T05:15:35.688Z,223.68
2023-02-19T05:18:02.913Z,220.27
2023-02-19T05:20:30.137Z,225.98
2023-02-19T05:22:57.615Z,225.02
2023-02-19T05:25:24.667Z,232.82
2023-02-19T05:28:11.579Z,224.88
2023-02-19T05:30:38.610Z,233.90
2023-02-19T05:33:05.613Z,228.15
2023-02-19T05:35:32.562Z,231.93
2023-02-19T05:38:02.207Z,231.00
2023-02-19T05:40:29.425Z,244.98
2023-02-19T05:42:56.634Z,242.68
2023-02-19T05:45:26.785Z,245.02
2023-02-19T05:47:55.762Z,228.32
2023-02-19T05:50:25.347Z,170.60
2023-02-19T05:52:52.493Z,237.20
2023-02-19T05:55:19.631Z,246.38
2023-02-19T05:57:51.719Z,251.70
2023-02-19T06:00:29.527Z,235.77
2023-02-19T06:02:56.501Z,236.77
2023-02-19T06:05:23.657Z,229.57
2023-02-19T06:07:50.751Z,234.75
2023-02-19T06:10:18.266Z,232.35
2023-02-19T06:12:45.604Z,238.18
2023-02-19T06:15:13.018Z,237.85
2023-02-19T06:17:40.238Z,232.20
2023-02-19T06:20:08.295Z,232.27
2023-02-19T06:22:35.499Z,266.77
2023-02-19T06:25:02.551Z,244.35
2023-02-19T06:27:29.758Z,244.55
2023-02-19T06:29:56.810Z,234.38
2023-02-19T06:32:24.097Z,247.15
2023-02-19T06:34:51.260Z,245.10
2023-02-19T06:37:20.117Z,243.27
2023-02-19T06:39:47.166Z,239.70
2023-02-19T06:42:14.202Z,227.55
2023-02-19T06:44:41.217Z,249.70
2023-02-19T06:47:11.735Z,251.10
2023-02-19T06:49:41.961Z,236.93
2023-02-19T06:52:09.021Z,239.40
2023-02-19T06:54:35.962Z,247.20
2023-02-19T06:57:03.368Z,242.98
2023-02-19T06:59:30.453Z,247.38
2023-02-19T07:01:57.421Z,257.48
2023-02-19T07:04:24.571Z,250.38
2023-02-19T07:06:51.644Z,250.68
2023-02-19T07:09:18.632Z,259.52
2023-02-19T07:11:45.604Z,256.42
2023-02-19T07:14:16.743Z,239.55
2023-02-19T07:16:44.676Z,252.25
2023-02-19T07:19:12.177Z,245.98
2023-02-19T07:21:39.379Z,250.88
2023-02-19T07:24:06.911Z,256.88
2023-02-19T07:26:34.327Z,244.18
2023-02-19T07:29:02.176Z,240.90
2023-02-19T07:31:29.336Z,238.30
2023-02-19T07:33:56.753Z,251.13
2023-02-19T07:36:24.778Z,243.40
2023-02-19T07:38:59.657Z,236.52
2023-02-19T07:41:27.533Z,235.80
2023-02-19T07:44:00.659Z,238.95
2023-02-19T07:46:28.938Z,237.30
2023-02-19T07:48:55.955Z,239.93
2023-02-19T07:51:24.640Z,238.88
2023-02-19T07:53:52.614Z,237.30
2023-02-19T07:56:20.992Z,236.80
2023-02-19T07:58:48.193Z,236.10
2023-02-19T08:01:41.071Z,231.00
2023-02-19T08:04:11.004Z,246.82
2023-02-19T08:06:38.855Z,243.63
2023-02-19T08:09:06.499Z,231.77
2023-02-19T08:11:51.969Z,248.95
2023-02-19T08:14:19.596Z,244.95
2023-02-19T08:16:53.257Z,251.15
2023-02-19T08:19:20.753Z,249.43
2023-02-19T08:21:57.829Z,242.40
2023-02-19T08:24:34.312Z,247.25
2023-02-19T08:27:01.440Z,245.05
2023-02-19T08:29:28.664Z,248.45
2023-02-19T08:31:56.568Z,251.32
2023-02-19T08:34:23.693Z,253.10
2023-02-19T08:36:50.884Z,263.27
2023-02-19T08:39:20.099Z,259.15
2023-02-19T08:41:48.193Z,245.82
2023-02-19T08:44:15.234Z,251.73
2023-02-19T08:46:42.409Z,254.35
2023-02-19T08:49:09.574Z,254.70
2023-02-19T08:51:36.912Z,251.60
2023-02-19T08:54:04.582Z,250.15
2023-02-19T08:56:31.635Z,250.90
2023-02-19T08:58:58.877Z,257.25
2023-02-19T09:01:25.915Z,244.90
2023-02-19T09:03:53.526Z,247.23
2023-02-19T09:06:21.022Z,254.57
2023-02-19T09:08:48.094Z,252.63
2023-02-19T09:11:15.793Z,257.42
2023-02-19T09:13:43.851Z,251.45
2023-02-19T09:16:11.456Z,253.00
2023-02-19T09:18:40.215Z,255.88
2023-02-19T09:21:07.766Z,252.77
2023-02-19T09:23:35.796Z,246.60
2023-02-19T09:26:07.882Z,243.85
2023-02-19T09:28:35.743Z,236.55
2023-02-19T09:31:07.579Z,234.60
2023-02-19T09:36:06.334Z,216.95
2023-02-19T09:38:33.365Z,219.68
2023-02-19T09:41:08.193Z,211.75
2023-02-19T09:43:36.947Z,218.23
2023-02-19T09:46:18.820Z,224.00
2023-02-19T09:48:49.553Z,217.13
2023-02-19T09:51:17.943Z,212.18
2023-02-19T09:53:48.893Z,214.60
2023-02-19T09:56:17.065Z,223.80
2023-02-19T09:58:50.021Z,208.00
2023-02-19T10:01:17.847Z,213.93
2023-02-19T10:03:49.211Z,210.15
2023-02-19T10:06:20.761Z,206.25
2023-02-19T10:08:50.924Z,216.95
2023-02-19T10:11:19.437Z,212.07
2023-02-19T10:13:54.939Z,207.55
2023-02-19T10:16:26.739Z,213.18
2023-02-19T10:18:54.009Z,210.23
2023-02-19T10:21:24.758Z,203.85
2023-02-19T10:23:57.265Z,205.68
2023-02-19T10:26:27.725Z,200.43
2023-02-19T10:28:55.642Z,193.80
2023-02-19T10:31:25.327Z,199.30
2023-02-19T10:33:58.081Z,198.10
2023-02-19T10:36:25.134Z,190.18
2023-02-19T10:38:53.127Z,196.57
2023-02-19T10:41:23.571Z,206.02
2023-02-19T10:44:15.542Z,208.15
2023-02-19T10:46:47.073Z,206.93
2023-02-19T10:49:28.430Z,218.17
2023-02-19T10:51:57.307Z,212.27
2023-02-19T10:54:35.440Z,233.63
2023-02-19T10:57:15.840Z,231.70
2023-02-19T10:59:53.947Z,234.70
2023-02-19T11:02:21.843Z,233.10
2023-02-19T11:05:16.887Z,235.35
2023-02-19T11:07:50.767Z,220.85
2023-02-19T11:10:27.843Z,220.93
2023-02-19T11:13:02.728Z,218.48
2023-02-19T11:15:35.280Z,216.05
2023-02-19T11:18:26.924Z,204.93
2023-02-19T11:21:02.458Z,210.82
2023-02-19T11:23:36.992Z,203.40
2023-02-19T11:26:13.489Z,205.30
2023-02-19T11:28:41.759Z,208.30
2023-02-19T11:31:31.177Z,198.77
2023-02-19T11:34:14.994Z,198.73
2023-02-19T11:36:44.698Z,194.02
2023-02-19T11:39:36.555Z,196.65
2023-02-19T11:42:48.737Z,197.52
2023-02-19T11:45:19.671Z,190.23
2023-02-19T11:48:01.263Z,186.90
2023-02-19T11:50:46.886Z,194.88
2023-02-19T11:53:43.346Z,186.85
2023-02-19T11:56:42.493Z,148.88
2023-02-19T11:59:34.617Z,184.98
2023-02-19T12:05:14.301Z,181.77
2023-02-19T12:12:11.607Z,181.77
2023-02-19T12:15:20.798Z,174.68
2023-02-19T12:18:00.803Z,180.65
2023-02-19T12:20:39.705Z,175.00
2023-02-19T12:23:48.925Z,171.43
2023-02-19T12:26:56.524Z,169.27
2023-02-19T12:29:45.413Z,170.10
2023-02-19T12:32:42.579Z,172.10
2023-02-19T12:35:27.887Z,170.18
2023-02-19T12:38:18.031Z,172.55
2023-02-19T12:41:03.657Z,171.25
2023-02-19T12:43:34.796Z,176.07
2023-02-19T12:48:50.306Z,169.75
2023-02-19T12:51:47.411Z,161.93
2023-02-19T12:54:24.041Z,173.05
2023-02-19T12:57:01.311Z,176.48
2023-02-19T12:59:42.353Z,165.68
2023-02-19T13:02:13.242Z,162.67
2023-02-19T13:04:50.969Z,165.75
2023-02-19T13:07:27.614Z,161.82
2023-02-19T13:10:27.609Z,170.18
2023-02-19T13:12:56.210Z,168.95
2023-02-19T13:15:42.397Z,170.52
2023-02-19T13:18:32.489Z,165.18
2023-02-19T13:21:02.502Z,160.07
2023-02-19T13:24:02.856Z,161.85
2023-02-19T13:27:03.147Z,163.50
2023-02-19T13:29:36.013Z,158.25
2023-02-19T13:32:43.191Z,157.82
2023-02-19T13:35:23.548Z,159.38
2023-02-19T13:38:01.187Z,153.75
2023-02-19T13:41:00.240Z,157.93
2023-02-19T13:43:43.936Z,166.35
2023-02-19T13:46:17.623Z,153.40
2023-02-19T13:48:45.030Z,154.73
2023-02-19T13:51:23.901Z,156.23
2023-02-19T13:54:02.474Z,156.68
2023-02-19T13:56:34.230Z,151.00
2023-02-19T13:59:38.788Z,159.48
2023-02-19T14:02:17.490Z,157.90
2023-02-19T14:05:07.372Z,157.70
2023-02-19T14:07:50.352Z,162.85
2023-02-19T14:11:09.737Z,157.63
2023-02-19T14:13:53.940Z,156.25
2023-02-19T14:16:37.833Z,160.32
2023-02-19T14:19:14.257Z,160.27
2023-02-19T14:21:44.008Z,163.07
2023-02-19T14:24:16.410Z,170.88
2023-02-19T14:26:44.095Z,162.85
2023-02-19T14:29:18.434Z,173.43
2023-02-19T14:31:46.969Z,165.85
2023-02-19T14:34:22.966Z,168.23
2023-02-19T14:36:52.855Z,166.45
2023-02-19T14:39:40.481Z,173.90
2023-02-19T14:42:17.921Z,161.90
2023-02-19T14:45:47.464Z,161.18
2023-02-19T14:48:28.368Z,176.25
2023-02-19T14:51:02.187Z,161.00
2023-02-19T14:53:34.090Z,169.65
2023-02-19T14:56:03.781Z,169.20
2023-02-19T14:58:42.261Z,170.82
2023-02-19T15:01:27.032Z,176.63
2023-02-19T15:03:56.665Z,208.80
2023-02-19T15:06:31.778Z,202.88
2023-02-19T15:09:07.648Z,185.50
2023-02-19T15:11:36.352Z,203.50
2023-02-19T15:14:16.109Z,183.82
2023-02-19T15:16:43.377Z,179.15
2023-02-19T15:19:13.953Z,184.68
2023-02-19T15:21:50.719Z,177.68
2023-02-19T15:24:19.433Z,179.60
2023-02-19T15:27:00.716Z,179.13
2023-02-19T15:29:30.937Z,184.05
2023-02-19T15:32:01.524Z,183.48
2023-02-19T15:38:33.537Z,178.50
2023-02-19T15:41:28.730Z,181.00
2023-02-19T15:44:12.031Z,181.27
2023-02-19T15:46:43.826Z,185.48
2023-02-19T15:49:27.812Z,177.05
2023-02-19T15:52:17.999Z,183.05
2023-02-19T15:54:57.429Z,173.25
2023-02-19T15:57:43.575Z,178.65
2023-02-19T16:00:54.686Z,170.05
2023-02-19T16:03:29.987Z,170.88
2023-02-19T16:06:13.162Z,163.73
2023-02-19T16:08:45.207Z,166.38
2023-02-19T16:11:34.292Z,168.98
2023-02-19T16:14:38.557Z,175.57
2023-02-19T16:17:32.296Z,180.13
2023-02-19T16:20:04.250Z,178.25
2023-02-19T16:22:40.696Z,178.75
2023-02-19T16:25:18.472Z,173.48
2023-02-19T16:27:46.780Z,173.80
2023-02-19T16:30:34.245Z,177.02
2023-02-19T16:33:20.344Z,171.80
2023-02-19T16:35:49.637Z,185.50
2023-02-19T16:42:13.570Z,193.90
2023-02-19T16:44:40.795Z,199.00
2023-02-19T16:47:31.601Z,195.25
2023-02-19T16:50:01.840Z,194.63
2023-02-19T16:52:32.551Z,197.38
2023-02-19T16:54:59.846Z,199.90
2023-02-19T16:57:26.869Z,201.13
2023-02-19T16:59:53.914Z,200.27
2023-02-19T17:02:27.622Z,197.00
2023-02-19T17:04:57.212Z,207.45
2023-02-19T17:07:33.909Z,193.45
2023-02-19T17:10:02.453Z,208.43
2023-02-19T17:12:33.305Z,203.63
2023-02-19T17:15:00.732Z,196.98
2023-02-19T17:17:27.783Z,190.68
2023-02-19T17:19:56.352Z,191.63
2023-02-19T17:22:23.560Z,195.50
2023-02-19T17:24:55.353Z,202.45
2023-02-19T17:27:22.445Z,193.75
2023-02-19T17:29:49.540Z,207.40
2023-02-19T17:32:16.783Z,212.60
2023-02-19T17:34:44.169Z,196.45
2023-02-19T17:37:11.400Z,194.27
2023-02-19T17:39:38.540Z,200.65
2023-02-19T17:42:06.163Z,198.63
2023-02-19T17:44:33.258Z,198.10
2023-02-19T17:47:10.183Z,190.48
2023-02-19T17:49:38.087Z,190.02
2023-02-19T17:52:16.365Z,189.02
2023-02-19T17:55:06.752Z,187.13
2023-02-19T17:57:51.191Z,194.55
2023-02-19T18:00:37.089Z,181.70
2023-02-19T18:03:13.163Z,194.80
2023-02-19T18:05:44.482Z,188.98
2023-02-19T18:08:16.210Z,183.30
2023-02-19T18:10:51.965Z,178.00
2023-02-19T18:13:24.623Z,188.40
2023-02-19T18:15:54.727Z,187.60
2023-02-19T18:18:25.628Z,197.85
2023-02-19T18:20:58.579Z,184.52
2023-02-19T18:23:26.645Z,196.88
2023-02-19T18:26:25.457Z,189.65
2023-02-19T18:28:58.731Z,183.10
2023-02-19T18:31:37.800Z,188.35
2023-02-19T18:34:16.691Z,180.75
2023-02-19T18:36:48.177Z,185.88
2023-02-19T18:41:56.911Z,180.05
2023-02-19T18:44:56.216Z,196.07
2023-02-19T18:47:30.173Z,190.77
2023-02-19T18:49:59.682Z,192.43
2023-02-19T18:52:29.002Z,189.20
2023-02-19T18:54:57.566Z,194.52
2023-02-19T18:57:26.411Z,188.95
2023-02-19T18:59:53.809Z,194.50
2023-02-19T19:02:21.324Z,197.98
2023-02-19T19:04:58.972Z,201.35
2023-02-19T19:07:26.023Z,201.50
2023-02-19T19:09:56.726Z,201.20
2023-02-19T19:12:23.858Z,192.88
2023-02-19T19:14:58.379Z,194.05
2023-02-19T19:17:25.472Z,192.18
2023-02-19T19:19:52.494Z,192.90
2023-02-19T19:22:25.241Z,190.85
2023-02-19T19:24:53.586Z,196.73
2023-02-19T19:27:21.524Z,206.15
2023-02-19T19:29:49.728Z,183.48
2023-02-19T19:32:19.680Z,188.23
2023-02-19T19:34:49.578Z,200.68
2023-02-19T19:37:16.650Z,187.90
2023-02-19T19:39:44.729Z,180.90
2023-02-19T19:42:11.948Z,184.90
2023-02-19T19:44:39.139Z,186.82
2023-02-19T19:47:06.234Z,184.80
2023-02-19T19:49:33.551Z,187.02
2023-02-19T19:52:01.358Z,192.35
2023-02-19T19:54:28.764Z,198.95
2023-02-19T19:56:59.724Z,189.93
2023-02-19T19:59:26.909Z,179.32
2023-02-19T20:01:57.933Z,185.70
2023-02-19T20:04:27.382Z,186.18
2023-02-19T20:06:54.835Z,187.70
2023-02-19T20:09:25.566Z,185.27
2023-02-19T20:11:59.978Z,175.80
2023-02-19T20:14:27.538Z,186.93
2023-02-19T20:16:55.353Z,185.38
2023-02-19T20:19:22.401Z,176.23
2023-02-19T20:21:54.288Z,175.95
2023-02-19T20:26:58.988Z,191.52
2023-02-19T20:29:29.629Z,208.70
2023-02-19T20:32:00.207Z,209.00
2023-02-19T20:34:27.454Z,198.82
2023-02-19T20:36:54.845Z,198.15
2023-02-19T20:39:22.679Z,198.23
2023-02-19T20:41:52.309Z,196.13
2023-02-19T20:44:19.769Z,216.75
2023-02-19T20:46:50.100Z,192.88
2023-02-19T20:49:19.013Z,190.48
2023-02-19T20:51:54.180Z,190.25
2023-02-19T20:54:24.664Z,186.95
2023-02-19T20:56:54.704Z,190.38
2023-02-19T20:59:24.192Z,198.32
2023-02-19T21:01:51.187Z,193.05
2023-02-19T21:04:21.295Z,198.93
2023-02-19T21:06:50.499Z,207.85
2023-02-19T21:09:17.978Z,209.23
2023-02-19T21:11:45.434Z,200.68
2023-02-19T21:14:13.572Z,199.75
2023-02-19T21:16:43.023Z,197.35
2023-02-19T21:19:11.500Z,200.88
2023-02-19T21:21:40.504Z,208.45
2023-02-19T21:24:09.506Z,204.02
2023-02-19T21:26:38.920Z,219.88
2023-02-19T21:29:08.458Z,203.63
2023-02-19T21:31:49.669Z,206.65
2023-02-19T21:34:19.194Z,216.88
2023-02-19T21:36:47.702Z,211.10
2023-02-19T21:39:18.778Z,213.57
2023-02-19T21:41:46.295Z,219.60
2023-02-19T21:44:13.766Z,204.77
2023-02-19T21:46:41.141Z,211.00
2023-02-19T21:49:08.435Z,210.10
2023-02-19T21:51:40.571Z,205.73
2023-02-19T21:54:08.808Z,214.45
2023-02-19T21:56:36.750Z,210.93
2023-02-19T21:59:04.655Z,204.15
2023-02-19T22:01:39.129Z,203.85
2023-02-19T22:04:09.107Z,203.10
2023-02-19T22:06:39.203Z,200.43
2023-02-19T22:09:08.268Z,203.18
2023-02-19T22:11:36.171Z,188.77
2023-02-19T22:14:07.393Z,191.68
2023-02-19T22:16:34.633Z,198.43
2023-02-19T22:19:02.235Z,197.75
2023-02-19T22:21:35.171Z,192.93
2023-02-19T22:24:04.756Z,193.23
2023-02-19T22:26:35.603Z,193.88
2023-02-19T22:29:07.320Z,153.30
2023-02-19T22:31:37.650Z,197.35
2023-02-19T22:34:06.153Z,201.18
2023-02-19T22:36:37.338Z,194.88
2023-02-19T22:39:07.652Z,203.05
2023-02-19T22:41:35.100Z,192.77
2023-02-19T22:44:04.713Z,188.43
2023-02-19T22:46:33.721Z,188.73
2023-02-19T22:49:03.992Z,191.20
2023-02-19T22:51:33.602Z,196.60
2023-02-19T22:54:01.659Z,195.20
2023-02-19T22:56:29.252Z,191.48
2023-02-19T22:58:57.694Z,181.63
2023-02-19T23:01:25.228Z,191.88
2023-02-19T23:03:58.689Z,182.95
2023-02-19T23:06:30.326Z,181.48
2023-02-19T23:09:10.943Z,179.82
2023-02-19T23:11:49.938Z,183.50
2023-02-19T23:14:20.038Z,187.45
2023-02-19T23:16:58.994Z,290.92
2023-02-19T23:19:28.140Z,244.07
2023-02-19T23:21:55.519Z,214.48
2023-02-19T23:24:24.398Z,194.98
2023-02-19T23:26:54.410Z,182.55
2023-02-19T23:29:25.291Z,182.00
2023-02-19T23:31:53.022Z,192.40
2023-02-19T23:34:20.964Z,182.70
2023-02-19T23:36:51.096Z,191.55
2023-02-19T23:39:21.171Z,196.05
2023-02-19T23:42:00.936Z,194.70
2023-02-19T23:44:29.374Z,202.15
2023-02-19T23:46:56.686Z,194.75
2023-02-19T23:49:23.980Z,196.30
2023-02-19T23:51:51.709Z,192.02
2023-02-19T23:54:27.460Z,194.43
2023-02-19T23:56:58.851Z,184.60
2023-02-19T23:59:27.518Z,192.48
